GCXO Airport Information

Runway Information
Runway 12 Length 11155 ft width 148 ft
Elevation 2060 ft Threshold 0 ft Heading 111
Runway 30 Length 11155 ft Width 148 ft
Elevation 2002 ft Threshold 0 ft Heading 291
Airport Frequencies
Type APP Name APP Frequency 119.7 MHZ
Type ATIS Name ATIS Frequency 118.575 MHZ
Type GND Name GND Frequency 121.7 MHZ
Type TWR Name TWR Frequency 118.7 MHZ
Airport Navaids
Type VOR-DME Name Tenerife Norte Frequency 117700 KHZ
Type NDB Name Tenerife Norte Frequency 410 KHZ
Airport Weather Information & NOTAM
ADDS - METARS form results

(1106 UTC 17 July 2018)
 
METAR text: GCXO 171100Z 32018KT 9999 FEW010 SCT014 19/14 Q1021 NOSIG
Conditions at: GCXO (TENERIFE/LOS ROD, ES) observed 1100 UTC 17 July 2018
Temperature: 19.0°C (66°F)
Dewpoint: 14.0°C (57°F) [RH = 73%]
Pressure (altimeter): 30.15 inches Hg (1021.0 mb)
Winds: from the NW (320 degrees) at 21 MPH (18 knots; 9.4 m/s)
Visibility: 6 or more miles (10+ km)
Ceiling: at least 12,000 feet AGL
Clouds: few clouds at 1000 feet AGL
scattered clouds at 1400 feet AGL
Weather: no significant weather observed at this time

METAR text: GCXO 171030Z 31020KT 280V340 9999 BKN012 19/14 Q1020 NOSIG
Conditions at: GCXO (TENERIFE/LOS ROD, ES) observed 1030 UTC 17 July 2018
Temperature: 19.0°C (66°F)
Dewpoint: 14.0°C (57°F) [RH = 73%]
Pressure (altimeter): 30.12 inches Hg (1020.0 mb)
Winds: from the NW (310 degrees) at 23 MPH (20 knots; 10.4 m/s)
Visibility: 6 or more miles (10+ km)
Ceiling: 1200 feet AGL
Clouds: broken clouds at 1200 feet AGL
Weather: no significant weather observed at this time